createdAt,value
2022-11-22T00:00:25.579Z,5.35
2022-11-22T00:02:52.477Z,5.41
2022-11-22T00:05:20.073Z,5.41
2022-11-22T00:07:46.692Z,5.51
2022-11-22T00:10:14.629Z,5.36
2022-11-22T00:12:41.924Z,5.27
2022-11-22T00:15:09.692Z,5.35
2022-11-22T00:17:37.146Z,5.39
2022-11-22T00:20:05.944Z,5.33
2022-11-22T00:22:32.916Z,5.35
2022-11-22T00:24:59.814Z,5.32
2022-11-22T00:27:26.482Z,5.32
2022-11-22T00:29:52.969Z,5.35
2022-11-22T00:32:19.412Z,5.33
2022-11-22T00:34:45.963Z,5.34
2022-11-22T00:37:12.478Z,5.36
2022-11-22T00:39:39.020Z,5.39
2022-11-22T00:42:05.627Z,5.50
2022-11-22T00:44:32.144Z,5.55
2022-11-22T00:46:58.639Z,5.62
2022-11-22T00:49:25.070Z,5.54
2022-11-22T00:51:51.629Z,5.55
2022-11-22T00:54:18.038Z,5.60
2022-11-22T00:56:44.516Z,5.68
2022-11-22T00:59:10.986Z,5.68
2022-11-22T01:01:37.521Z,5.64
2022-11-22T01:04:04.373Z,5.72
2022-11-22T01:06:31.203Z,5.67
2022-11-22T01:08:57.994Z,5.62
2022-11-22T01:11:24.480Z,5.69
2022-11-22T01:13:50.975Z,5.71
2022-11-22T01:16:17.592Z,5.68
2022-11-22T01:18:44.340Z,5.72
2022-11-22T01:21:10.814Z,5.64
2022-11-22T01:23:38.206Z,5.68
2022-11-22T01:26:11.456Z,5.72
2022-11-22T01:28:37.903Z,5.84
2022-11-22T01:31:04.920Z,5.84
2022-11-22T01:33:31.420Z,5.71
2022-11-22T01:35:58.395Z,5.72
2022-11-22T01:38:25.349Z,5.77
2022-11-22T01:40:53.189Z,5.77
2022-11-22T01:43:23.516Z,5.79
2022-11-22T01:46:17.189Z,5.75
2022-11-22T01:48:55.381Z,5.82
2022-11-22T01:51:33.467Z,5.82
2022-11-22T01:54:07.973Z,5.79
2022-11-22T01:56:37.036Z,5.87
2022-11-22T01:59:12.072Z,5.87
2022-11-22T02:01:38.556Z,5.92
2022-11-22T02:04:08.269Z,5.93
2022-11-22T02:06:51.357Z,5.99
2022-11-22T02:09:18.441Z,6.13
2022-11-22T02:11:54.160Z,6.17
2022-11-22T02:14:26.740Z,6.13
2022-11-22T02:16:53.707Z,6.11
2022-11-22T02:19:46.306Z,6.19
2022-11-22T02:22:36.699Z,6.19
2022-11-22T02:25:43.754Z,5.93
2022-11-22T02:28:13.670Z,5.90
2022-11-22T02:30:41.447Z,6.00
2022-11-22T02:33:08.496Z,6.10
2022-11-22T02:35:35.496Z,6.14
2022-11-22T02:38:08.701Z,6.07
2022-11-22T02:40:45.252Z,6.10
2022-11-22T02:43:18.717Z,6.04
2022-11-22T02:45:45.226Z,6.06
2022-11-22T02:48:15.633Z,6.14
2022-11-22T02:50:43.277Z,6.18
2022-11-22T02:53:11.778Z,6.25
2022-11-22T02:55:39.064Z,6.30
2022-11-22T02:58:06.007Z,6.23
2022-11-22T03:00:34.886Z,6.20
2022-11-22T03:03:01.872Z,6.16
2022-11-22T03:05:28.548Z,6.01
2022-11-22T03:07:55.114Z,5.97
2022-11-22T03:10:21.596Z,5.95
2022-11-22T03:12:48.098Z,5.92
2022-11-22T03:15:14.634Z,5.77
2022-11-22T03:17:41.129Z,5.76
2022-11-22T03:20:08.417Z,5.87
2022-11-22T03:22:35.334Z,5.95
2022-11-22T03:25:01.830Z,5.95
2022-11-22T03:27:28.340Z,6.02
2022-11-22T03:29:54.822Z,6.07
2022-11-22T03:32:21.288Z,5.98
2022-11-22T03:34:47.758Z,5.92
2022-11-22T03:37:14.219Z,5.97
2022-11-22T03:39:40.704Z,6.03
2022-11-22T03:42:07.271Z,6.03
2022-11-22T03:44:33.749Z,6.00
2022-11-22T03:47:00.180Z,5.93
2022-11-22T03:49:26.659Z,5.94
2022-11-22T03:51:53.161Z,5.92
2022-11-22T03:54:19.582Z,5.86
2022-11-22T03:56:46.047Z,5.78
2022-11-22T03:59:12.747Z,5.65
2022-11-22T04:01:39.281Z,5.56
2022-11-22T04:04:05.864Z,5.54
2022-11-22T04:06:32.297Z,5.53
2022-11-22T04:08:58.826Z,5.57
2022-11-22T04:11:25.339Z,5.59
2022-11-22T04:14:10.659Z,5.63
2022-11-22T04:16:37.165Z,5.54
2022-11-22T04:19:03.687Z,5.52
2022-11-22T04:21:36.296Z,5.46
2022-11-22T04:24:24.279Z,5.48
2022-11-22T04:26:51.985Z,5.39
2022-11-22T04:29:20.149Z,5.35
2022-11-22T04:32:07.491Z,5.26
2022-11-22T04:34:34.751Z,5.17
2022-11-22T04:37:02.256Z,5.17
2022-11-22T04:39:29.144Z,5.14
2022-11-22T04:42:15.717Z,5.15
2022-11-22T04:44:44.048Z,5.02
2022-11-22T04:47:35.188Z,4.98
2022-11-22T04:50:03.651Z,4.88
2022-11-22T04:52:49.004Z,4.84
2022-11-22T04:55:15.589Z,4.74
2022-11-22T04:57:42.134Z,4.68
2022-11-22T05:00:09.404Z,4.62
2022-11-22T05:02:35.872Z,4.59
2022-11-22T05:05:02.368Z,4.59
2022-11-22T05:07:28.818Z,4.61
2022-11-22T05:09:55.363Z,4.58
2022-11-22T05:12:21.845Z,4.45
2022-11-22T05:14:48.313Z,4.43
2022-11-22T05:17:14.837Z,4.42
2022-11-22T05:19:44.960Z,4.38
2022-11-22T05:22:14.283Z,4.27
2022-11-22T05:24:40.754Z,4.27
2022-11-22T05:27:07.313Z,4.31
2022-11-22T05:29:33.844Z,4.21
2022-11-22T05:32:00.513Z,4.09
2022-11-22T05:34:26.947Z,4.07
2022-11-22T05:36:53.617Z,4.00
2022-11-22T05:39:20.105Z,3.93
2022-11-22T05:41:55.763Z,3.93
2022-11-22T05:44:23.924Z,3.87
2022-11-22T05:46:50.393Z,3.85
2022-11-22T05:49:16.835Z,3.77
2022-11-22T05:51:43.421Z,3.74
2022-11-22T05:54:10.034Z,3.61
2022-11-22T05:56:36.539Z,3.67
2022-11-22T05:59:03.115Z,3.71
2022-11-22T06:01:29.644Z,3.73
2022-11-22T06:03:56.105Z,3.65
2022-11-22T06:06:22.871Z,3.61
2022-11-22T06:08:51.075Z,3.55
2022-11-22T06:11:20.065Z,3.36
2022-11-22T06:13:49.684Z,3.34
2022-11-22T06:16:16.827Z,3.36
2022-11-22T06:18:43.771Z,3.31
2022-11-22T06:21:20.415Z,3.29
2022-11-22T06:23:46.827Z,2.88
2022-11-22T06:26:18.017Z,3.07
2022-11-22T06:28:46.992Z,3.20
2022-11-22T06:31:16.151Z,3.12
2022-11-22T06:33:43.858Z,3.00
2022-11-22T06:36:20.286Z,3.00
2022-11-22T06:38:47.040Z,3.01
2022-11-22T06:41:17.637Z,2.99
2022-11-22T06:43:49.276Z,3.05
2022-11-22T06:46:19.713Z,3.20
2022-11-22T06:48:46.882Z,3.41
2022-11-22T06:51:24.110Z,3.57
2022-11-22T06:53:51.897Z,3.69
2022-11-22T06:56:25.466Z,3.71
2022-11-22T06:58:54.222Z,3.73
2022-11-22T07:01:26.882Z,3.76
2022-11-22T07:03:58.056Z,3.71
2022-11-22T07:06:31.600Z,3.74
2022-11-22T07:09:00.055Z,3.86
2022-11-22T07:11:30.481Z,3.98
2022-11-22T07:14:06.612Z,4.03
2022-11-22T07:16:36.352Z,4.06
2022-11-22T07:19:03.163Z,4.00
2022-11-22T07:21:29.773Z,3.98
2022-11-22T07:23:56.572Z,3.89
2022-11-22T07:26:25.575Z,3.80
2022-11-22T07:28:52.052Z,3.85
2022-11-22T07:31:19.587Z,3.83
2022-11-22T07:33:46.291Z,3.83
2022-11-22T07:36:20.356Z,3.81
2022-11-22T07:38:48.472Z,3.86
2022-11-22T07:41:16.272Z,3.80
2022-11-22T07:43:43.329Z,3.83
2022-11-22T07:46:21.814Z,3.83
2022-11-22T07:48:49.759Z,3.87
2022-11-22T07:51:17.030Z,3.92
2022-11-22T07:53:43.509Z,3.96
2022-11-22T07:56:10.022Z,4.00
2022-11-22T07:58:37.552Z,4.04
2022-11-22T08:01:06.765Z,4.15
2022-11-22T08:03:34.054Z,4.22
2022-11-22T08:06:01.653Z,4.34
2022-11-22T08:08:29.073Z,4.39
2022-11-22T08:10:55.819Z,4.52
2022-11-22T08:13:23.225Z,4.46
2022-11-22T08:15:51.512Z,4.43
2022-11-22T08:18:21.468Z,4.38
2022-11-22T08:20:47.990Z,4.44
2022-11-22T08:23:14.465Z,4.36
2022-11-22T08:25:40.910Z,4.41
2022-11-22T08:28:07.412Z,4.48
2022-11-22T08:30:33.864Z,4.54
2022-11-22T08:33:00.373Z,4.59
2022-11-22T08:35:26.913Z,4.56
2022-11-22T08:37:57.759Z,4.54
2022-11-22T08:40:24.526Z,4.51
2022-11-22T08:42:55.137Z,4.46
2022-11-22T08:45:21.654Z,4.48
2022-11-22T08:47:48.958Z,4.41
2022-11-22T08:50:17.620Z,4.27
2022-11-22T08:52:44.375Z,4.24
2022-11-22T08:55:10.882Z,4.08
2022-11-22T08:57:37.492Z,3.92
2022-11-22T09:00:06.575Z,3.93
2022-11-22T09:02:33.063Z,3.98
2022-11-22T09:04:59.497Z,4.00
2022-11-22T09:10:12.680Z,4.12
2022-11-22T09:12:43.431Z,4.35
2022-11-22T09:15:10.663Z,4.56
2022-11-22T09:17:37.220Z,4.72
2022-11-22T09:20:04.813Z,4.83
2022-11-22T09:22:31.977Z,5.01
2022-11-22T09:24:58.445Z,5.10
2022-11-22T09:27:24.876Z,5.30
2022-11-22T09:29:54.209Z,5.40
2022-11-22T09:32:20.702Z,5.52
2022-11-22T09:34:47.124Z,5.65
2022-11-22T09:37:17.157Z,5.77
2022-11-22T09:39:48.586Z,5.78
2022-11-22T09:42:51.433Z,5.79
2022-11-22T09:45:49.730Z,5.83
2022-11-22T09:48:33.175Z,5.82
2022-11-22T09:51:12.176Z,5.82
2022-11-22T09:53:52.983Z,5.79
2022-11-22T09:56:25.257Z,5.80
2022-11-22T09:59:21.298Z,5.64
2022-11-22T10:02:17.008Z,5.53
2022-11-22T10:04:55.628Z,5.45
2022-11-22T10:07:56.718Z,5.47
2022-11-22T10:10:35.248Z,5.42
2022-11-22T10:13:16.914Z,5.42
2022-11-22T10:16:14.334Z,5.37
2022-11-22T10:18:55.473Z,5.30
2022-11-22T10:21:22.052Z,5.35
2022-11-22T10:23:48.553Z,5.34
2022-11-22T10:26:49.896Z,5.33
2022-11-22T10:29:28.730Z,5.36
2022-11-22T10:32:09.762Z,5.39
2022-11-22T10:35:18.356Z,5.39
2022-11-22T10:37:58.170Z,5.47
2022-11-22T10:40:58.427Z,5.43
2022-11-22T10:43:54.456Z,5.53
2022-11-22T10:46:40.394Z,5.76
2022-11-22T10:49:35.532Z,5.93
2022-11-22T10:52:35.680Z,6.24
2022-11-22T10:55:22.172Z,6.49
2022-11-22T10:58:22.570Z,6.54
2022-11-22T11:01:38.453Z,6.71
2022-11-22T11:04:09.588Z,6.95
2022-11-22T11:07:11.147Z,7.14
2022-11-22T11:12:58.776Z,7.31
2022-11-22T11:15:37.989Z,7.29
2022-11-22T11:18:32.543Z,7.26
2022-11-22T11:20:59.053Z,7.30
2022-11-22T11:23:25.584Z,7.30
2022-11-22T11:25:52.509Z,7.34
2022-11-22T11:28:30.013Z,7.37
2022-11-22T11:31:09.364Z,7.44
2022-11-22T11:33:39.182Z,7.45
2022-11-22T11:36:21.032Z,7.50
2022-11-22T11:38:52.862Z,7.56
2022-11-22T11:41:34.460Z,7.52
2022-11-22T11:44:06.137Z,7.51
2022-11-22T11:46:41.342Z,7.45
2022-11-22T11:49:24.017Z,7.45
2022-11-22T11:52:19.151Z,7.44
2022-11-22T11:54:49.229Z,7.47
2022-11-22T11:57:25.160Z,7.45
2022-11-22T11:59:54.499Z,7.44
2022-11-22T12:02:40.973Z,7.39
2022-11-22T12:05:28.400Z,7.25
2022-11-22T12:07:55.608Z,7.33
2022-11-22T12:10:56.547Z,7.34
2022-11-22T12:13:57.789Z,7.36
2022-11-22T12:16:36.523Z,7.43
2022-11-22T12:19:50.569Z,7.49
2022-11-22T12:22:49.388Z,7.53
2022-11-22T12:25:47.756Z,7.54
2022-11-22T12:28:20.421Z,7.58
2022-11-22T12:30:55.348Z,7.64
2022-11-22T12:33:41.442Z,7.68
2022-11-22T12:36:42.072Z,7.61
2022-11-22T12:39:17.303Z,7.65
2022-11-22T12:41:49.990Z,7.72
2022-11-22T12:44:21.036Z,7.58
2022-11-22T12:46:59.277Z,7.54
2022-11-22T12:49:52.532Z,7.41
2022-11-22T12:52:52.932Z,7.22
2022-11-22T12:55:34.969Z,7.19
2022-11-22T12:58:49.421Z,7.32
2022-11-22T13:01:28.647Z,7.38
2022-11-22T13:04:11.815Z,7.51
2022-11-22T13:06:56.353Z,7.39
2022-11-22T13:09:31.676Z,7.23
2022-11-22T13:12:25.302Z,7.23
2022-11-22T13:14:55.426Z,7.23
2022-11-22T13:17:24.801Z,7.23
2022-11-22T13:20:03.265Z,7.27
2022-11-22T13:23:19.454Z,7.22
2022-11-22T13:26:18.622Z,7.07
2022-11-22T13:28:46.698Z,7.14
2022-11-22T13:31:18.724Z,7.11
2022-11-22T13:34:01.302Z,7.12
2022-11-22T13:36:27.717Z,7.22
2022-11-22T13:39:10.279Z,7.28
2022-11-22T13:41:41.751Z,7.32
2022-11-22T13:44:23.442Z,7.22
2022-11-22T13:46:49.838Z,7.32
2022-11-22T13:49:45.089Z,7.19
2022-11-22T13:52:14.865Z,7.28
2022-11-22T13:54:47.302Z,7.32
2022-11-22T13:57:39.903Z,7.25
2022-11-22T14:00:12.651Z,7.42
2022-11-22T14:02:53.229Z,7.38
2022-11-22T14:05:38.034Z,7.40
2022-11-22T14:08:31.070Z,7.26
2022-11-22T14:11:17.707Z,7.35
2022-11-22T14:14:12.591Z,7.39
2022-11-22T14:16:57.940Z,7.45
2022-11-22T14:19:33.415Z,7.48
2022-11-22T14:22:18.886Z,7.43
2022-11-22T14:24:53.310Z,7.43
2022-11-22T14:27:46.940Z,7.32
2022-11-22T14:30:22.460Z,7.33
2022-11-22T14:33:15.432Z,7.15
2022-11-22T14:36:06.608Z,7.06
2022-11-22T14:38:38.707Z,7.14
2022-11-22T14:41:42.054Z,7.10
2022-11-22T14:44:17.131Z,7.08
2022-11-22T14:46:57.836Z,7.13
2022-11-22T14:49:46.289Z,7.04
2022-11-22T14:52:32.884Z,6.93
2022-11-22T14:55:06.011Z,7.09
2022-11-22T14:57:36.591Z,7.12
2022-11-22T15:00:20.677Z,7.08
2022-11-22T15:09:11.675Z,7.02
2022-11-22T15:09:21.284Z,7.12
2022-11-22T15:11:03.139Z,6.93
2022-11-22T15:14:16.068Z,6.80
2022-11-22T15:59:46.773Z,7.01
2022-11-22T16:02:19.947Z,7.03
2022-11-22T16:06:06.185Z,7.04
2022-11-22T16:07:48.452Z,7.00
2022-11-22T16:10:23.949Z,6.94
2022-11-22T16:12:52.487Z,6.92
2022-11-22T16:15:38.356Z,6.85
2022-11-22T16:18:26.172Z,6.80
2022-11-22T16:21:22.145Z,6.75
2022-11-22T16:24:12.393Z,6.78
2022-11-22T16:26:39.858Z,6.87
2022-11-22T16:29:31.923Z,6.86
2022-11-22T16:32:06.508Z,6.72
2022-11-22T16:34:33.047Z,6.75
2022-11-22T16:36:59.560Z,6.75
2022-11-22T16:39:26.101Z,6.80
2022-11-22T16:41:52.655Z,6.80
2022-11-22T16:44:21.413Z,6.82
2022-11-22T16:46:47.916Z,6.82
2022-11-22T16:49:22.656Z,6.66
2022-11-22T16:51:51.018Z,6.67
2022-11-22T16:54:20.628Z,6.73
2022-11-22T16:56:47.420Z,6.74
2022-11-22T16:59:13.967Z,6.75
2022-11-22T17:01:43.317Z,6.74
2022-11-22T17:04:40.813Z,6.71
2022-11-22T17:07:12.917Z,6.75
2022-11-22T17:09:39.571Z,6.85
2022-11-22T17:12:21.081Z,6.88
2022-11-22T17:14:48.486Z,6.90
2022-11-22T17:17:15.151Z,6.82
2022-11-22T17:19:57.007Z,6.79
2022-11-22T17:22:23.571Z,6.77
2022-11-22T17:24:50.042Z,6.75
2022-11-22T17:27:16.628Z,6.62
2022-11-22T17:29:50.406Z,6.56
2022-11-22T17:32:17.360Z,6.58
2022-11-22T17:34:43.838Z,6.64
2022-11-22T17:37:12.424Z,6.53
2022-11-22T17:39:39.723Z,6.46
2022-11-22T17:42:06.648Z,6.53
2022-11-22T17:44:33.213Z,6.61
2022-11-22T17:46:59.701Z,6.60
2022-11-22T17:49:26.380Z,6.52
2022-11-22T17:51:52.859Z,6.53
2022-11-22T17:54:19.476Z,6.59
2022-11-22T17:56:46.074Z,6.63
2022-11-22T17:59:12.517Z,6.69
2022-11-22T18:01:39.069Z,6.75
2022-11-22T18:04:05.497Z,6.77
2022-11-22T18:06:32.142Z,6.72
2022-11-22T18:08:58.768Z,6.72
2022-11-22T18:11:26.013Z,6.72
2022-11-22T18:13:52.724Z,6.65
2022-11-22T18:16:19.183Z,6.70
2022-11-22T18:19:01.787Z,6.72
2022-11-22T18:21:30.711Z,6.67
2022-11-22T18:23:58.797Z,6.78
2022-11-22T18:26:42.177Z,6.77
2022-11-22T18:31:57.556Z,6.62
2022-11-22T18:34:25.610Z,6.68
2022-11-22T18:36:55.705Z,6.68
2022-11-22T18:39:24.576Z,6.63
2022-11-22T18:41:51.378Z,6.71
2022-11-22T18:44:18.283Z,6.59
2022-11-22T18:46:44.844Z,6.57
2022-11-22T18:49:11.301Z,6.64
2022-11-22T18:51:37.819Z,6.66
2022-11-22T18:54:04.448Z,6.66
2022-11-22T18:56:30.934Z,6.58
2022-11-22T18:58:57.422Z,6.60
2022-11-22T19:01:24.441Z,6.64
2022-11-22T19:03:50.977Z,6.56
2022-11-22T19:06:19.702Z,6.58
2022-11-22T19:08:47.125Z,6.66
2022-11-22T19:11:14.265Z,6.73
2022-11-22T19:13:42.576Z,6.49
2022-11-22T19:16:16.368Z,6.50
2022-11-22T19:18:44.581Z,6.54
2022-11-22T19:21:21.086Z,6.58
2022-11-22T19:23:49.620Z,6.69
2022-11-22T19:26:23.507Z,6.66
2022-11-22T19:28:56.014Z,6.67
2022-11-22T19:31:27.571Z,6.75
2022-11-22T19:33:54.385Z,6.70
2022-11-22T19:36:27.893Z,6.70
2022-11-22T19:38:59.677Z,6.71
2022-11-22T19:41:26.392Z,6.72
2022-11-22T19:43:53.026Z,6.78
2022-11-22T19:46:20.030Z,6.87
2022-11-22T19:48:55.274Z,6.82
2022-11-22T19:51:24.051Z,6.82
2022-11-22T19:53:55.286Z,6.70
2022-11-22T19:56:21.807Z,6.73
2022-11-22T19:58:54.239Z,6.67
2022-11-22T20:01:23.227Z,6.80
2022-11-22T20:04:01.474Z,6.73
2022-11-22T20:06:28.440Z,6.74
2022-11-22T20:09:03.000Z,6.74
2022-11-22T20:11:29.742Z,6.76
2022-11-22T20:13:56.705Z,6.81
2022-11-22T20:16:29.595Z,6.85
2022-11-22T20:18:59.877Z,6.82
2022-11-22T20:21:29.203Z,6.82
2022-11-22T20:23:56.584Z,6.81
2022-11-22T20:26:25.315Z,6.78
2022-11-22T20:29:00.998Z,6.76
2022-11-22T20:31:31.103Z,6.84
2022-11-22T20:33:59.519Z,6.81
2022-11-22T20:36:29.738Z,6.74
2022-11-22T20:38:57.268Z,6.76
2022-11-22T20:41:28.310Z,6.70
2022-11-22T20:43:55.439Z,6.77
2022-11-22T20:46:25.717Z,6.74
2022-11-22T20:48:53.301Z,6.80
2022-11-22T20:51:26.681Z,6.66
2022-11-22T20:53:54.188Z,6.76
2022-11-22T20:56:21.517Z,6.85
2022-11-22T20:58:48.527Z,6.79
2022-11-22T21:01:25.055Z,6.73
2022-11-22T21:03:54.393Z,6.75
2022-11-22T21:06:25.057Z,6.80
2022-11-22T21:08:51.790Z,6.81
2022-11-22T21:11:22.194Z,6.82
2022-11-22T21:13:49.515Z,6.79
2022-11-22T21:16:24.451Z,6.81
2022-11-22T21:19:06.361Z,6.84
2022-11-22T21:21:35.737Z,6.82
2022-11-22T21:24:04.861Z,6.82
2022-11-22T21:26:31.980Z,6.92
2022-11-22T21:29:00.050Z,6.97
2022-11-22T21:31:27.931Z,6.97
2022-11-22T21:33:54.464Z,6.91
2022-11-22T21:36:22.284Z,6.84
2022-11-22T21:38:49.144Z,6.87
2022-11-22T21:44:05.716Z,6.82
2022-11-22T21:46:32.135Z,6.82
2022-11-22T21:48:58.611Z,6.88
2022-11-22T21:51:26.181Z,6.92
2022-11-22T21:54:00.409Z,6.93
2022-11-22T21:56:28.118Z,6.92
2022-11-22T21:58:55.025Z,6.96
2022-11-22T22:01:22.488Z,7.02
2022-11-22T22:03:49.158Z,7.05
2022-11-22T22:06:15.684Z,7.09
2022-11-22T22:08:42.169Z,7.03
2022-11-22T22:11:08.648Z,7.00
2022-11-22T22:13:35.947Z,7.01
2022-11-22T22:16:06.574Z,7.04
2022-11-22T22:18:36.679Z,7.00
2022-11-22T22:21:07.355Z,6.96
2022-11-22T22:23:36.058Z,6.92
2022-11-22T22:26:07.063Z,6.96
2022-11-22T22:28:36.629Z,6.91
2022-11-22T22:31:11.940Z,6.89
2022-11-22T22:33:41.304Z,6.93
2022-11-22T22:36:10.032Z,6.87
2022-11-22T22:38:37.053Z,6.86
2022-11-22T22:41:05.629Z,6.82
2022-11-22T22:43:35.893Z,6.86
2022-11-22T22:46:10.169Z,6.80
2022-11-22T22:48:36.809Z,6.87
2022-11-22T22:51:27.507Z,6.71
2022-11-22T22:53:57.761Z,6.81
2022-11-22T22:56:25.135Z,6.81
2022-11-22T22:58:56.451Z,6.80
2022-11-22T23:01:26.241Z,6.88
2022-11-22T23:03:59.133Z,6.91
2022-11-22T23:06:29.186Z,6.95
2022-11-22T23:08:56.937Z,6.85
2022-11-22T23:11:45.981Z,6.85
2022-11-22T23:14:15.192Z,6.84
2022-11-22T23:16:41.911Z,6.90
2022-11-22T23:19:09.347Z,6.98
2022-11-22T23:21:36.336Z,6.99
2022-11-22T23:24:04.209Z,7.00
2022-11-22T23:26:30.925Z,6.94
2022-11-22T23:28:58.749Z,6.95
2022-11-22T23:31:25.421Z,7.01
2022-11-22T23:33:51.849Z,7.02
2022-11-22T23:36:20.861Z,7.05
2022-11-22T23:38:47.740Z,7.13
2022-11-22T23:41:20.937Z,7.16
2022-11-22T23:43:52.427Z,7.17
2022-11-22T23:46:18.944Z,7.09
2022-11-22T23:48:47.855Z,7.17
2022-11-22T23:51:15.585Z,7.10
2022-11-22T23:53:42.117Z,7.08
2022-11-22T23:56:12.540Z,7.02
2022-11-22T23:58:39.985Z,6.97
